Terminal Aerodrome Forecast
Issued by NWS

Home | Current Version | Previous Version | Text Only | Print | Product List | Glossary Off
Versions: 1 2 3 4 5 6 7 8 9 10 11 12 13 14 15 16

000
FTUS43 KMPX 292320
TAFRWF
TAF
KRWF 292320Z 3000/3024 16007KT P6SM SCT250
     FM300600 18005KT 6SM BCFG FEW003
     FM301400 19010KT P6SM SKC
     FM301800 19014G22KT P6SM SKC=

USA.gov is the U.S. government's official web portal to all federal, state and local government web resources and services.